createdAt,value
2018-03-15T00:00:09.287Z,38.33
2018-03-15T00:02:37.712Z,39.63
2018-03-15T00:05:05.348Z,39.50
2018-03-15T00:07:32.977Z,39.90
2018-03-15T00:10:00.609Z,35.17
2018-03-15T00:12:28.232Z,41.57
2018-03-15T00:14:55.858Z,35.10
2018-03-15T00:17:23.485Z,36.27
2018-03-15T00:19:51.130Z,40.73
2018-03-15T00:22:18.934Z,37.33
2018-03-15T00:24:46.967Z,37.63
2018-03-15T00:27:14.637Z,37.80
2018-03-15T00:29:42.260Z,48.33
2018-03-15T00:32:09.897Z,38.77
2018-03-15T00:34:37.521Z,46.03
2018-03-15T00:37:05.180Z,41.67
2018-03-15T00:39:32.792Z,41.10
2018-03-15T00:42:00.436Z,39.57
2018-03-15T00:44:28.056Z,41.37
2018-03-15T00:46:55.677Z,52.57
2018-03-15T00:49:23.300Z,36.00
2018-03-15T00:51:50.948Z,38.30
2018-03-15T00:54:19.328Z,43.23
2018-03-15T00:56:47.716Z,40.33
2018-03-15T00:59:15.356Z,46.03
2018-03-15T01:01:42.984Z,40.50
2018-03-15T01:04:10.609Z,50.90
2018-03-15T01:06:38.993Z,46.80
2018-03-15T01:09:06.624Z,47.10
2018-03-15T01:11:34.248Z,44.87
2018-03-15T01:14:01.890Z,45.67
2018-03-15T01:16:30.276Z,42.23
2018-03-15T01:18:57.901Z,36.47
2018-03-15T01:21:25.541Z,40.90
2018-03-15T01:23:53.189Z,45.20
2018-03-15T01:26:21.148Z,44.40
2018-03-15T01:28:49.528Z,44.33
2018-03-15T01:31:17.168Z,54.93
2018-03-15T01:33:44.800Z,42.80
2018-03-15T01:36:12.451Z,43.13
2018-03-15T01:38:40.224Z,37.77
2018-03-15T01:41:07.848Z,38.93
2018-03-15T01:43:36.245Z,42.90
2018-03-15T01:46:03.873Z,40.77
2018-03-15T01:48:31.532Z,40.97
2018-03-15T01:50:59.164Z,43.20
2018-03-15T01:53:26.781Z,41.07
2018-03-15T01:55:54.405Z,41.23
2018-03-15T01:58:22.044Z,46.13
2018-03-15T02:00:50.488Z,42.87
2018-03-15T02:03:18.121Z,45.33
2018-03-15T02:05:45.743Z,49.47
2018-03-15T02:08:14.137Z,47.90
2018-03-15T02:10:41.765Z,53.17
2018-03-15T02:13:09.401Z,55.03
2018-03-15T02:15:37.024Z,53.70
2018-03-15T02:18:05.418Z,54.03
2018-03-15T02:20:33.811Z,54.47
2018-03-15T02:23:01.448Z,60.20
2018-03-15T02:25:29.073Z,55.37
2018-03-15T02:27:56.712Z,48.33
2018-03-15T02:30:24.332Z,55.93
2018-03-15T02:32:51.993Z,47.47
2018-03-15T02:35:19.733Z,53.87
2018-03-15T02:37:47.241Z,48.87
2018-03-15T02:40:14.868Z,50.87
2018-03-15T02:42:42.497Z,45.83
2018-03-15T02:45:10.900Z,48.67
2018-03-15T02:47:38.534Z,45.60
2018-03-15T02:50:06.165Z,54.23
2018-03-15T02:52:33.786Z,52.80
2018-03-15T02:55:02.464Z,49.73
2018-03-15T02:57:30.862Z,46.07
2018-03-15T02:59:58.497Z,50.17
2018-03-15T03:02:26.118Z,46.40
2018-03-15T03:04:53.752Z,53.73
2018-03-15T03:07:21.381Z,53.90
2018-03-15T03:09:49.002Z,46.10
2018-03-15T03:12:16.624Z,50.13
2018-03-15T03:14:44.245Z,46.10
2018-03-15T03:17:11.877Z,52.17
2018-03-15T03:19:40.283Z,47.67
2018-03-15T03:22:07.913Z,49.37
2018-03-15T03:24:35.538Z,47.13
2018-03-15T03:27:03.165Z,50.20
2018-03-15T03:29:30.801Z,44.97
2018-03-15T03:31:58.425Z,44.87
2018-03-15T03:34:26.053Z,46.47
2018-03-15T03:36:54.444Z,48.07
2018-03-15T03:39:22.073Z,49.67
2018-03-15T03:41:49.703Z,41.57
2018-03-15T03:44:17.329Z,50.77
2018-03-15T03:46:45.732Z,42.33
2018-03-15T03:49:14.116Z,40.43
2018-03-15T03:51:41.752Z,42.00
2018-03-15T03:54:09.373Z,46.50
2018-03-15T03:56:37.021Z,49.33
2018-03-15T03:59:04.632Z,46.73
2018-03-15T04:01:32.264Z,43.43
2018-03-15T04:03:59.901Z,45.33
2018-03-15T04:06:28.284Z,40.30
2018-03-15T04:08:56.677Z,43.57
2018-03-15T04:11:24.316Z,48.80
2018-03-15T04:13:51.925Z,42.93
2018-03-15T04:16:19.548Z,38.93
2018-03-15T04:18:47.225Z,43.63
2018-03-15T04:21:15.612Z,47.17
2018-03-15T04:23:44.008Z,51.97
2018-03-15T04:26:11.637Z,51.23
2018-03-15T04:28:39.260Z,48.40
2018-03-15T04:31:06.901Z,44.10
2018-03-15T04:33:34.532Z,54.30
2018-03-15T04:36:02.155Z,51.60
2018-03-15T04:38:29.788Z,47.90
2018-03-15T04:40:58.190Z,53.33
2018-03-15T04:43:25.824Z,41.50
2018-03-15T04:45:53.472Z,44.40
2018-03-15T04:48:22.618Z,39.17
2018-03-15T04:50:50.253Z,54.27
2018-03-15T04:53:17.872Z,53.53
2018-03-15T04:55:45.501Z,44.57
2018-03-15T04:58:13.888Z,41.10
2018-03-15T05:00:42.286Z,37.20
2018-03-15T05:03:10.669Z,46.50
2018-03-15T05:05:38.576Z,45.13
2018-03-15T05:08:06.201Z,43.47
2018-03-15T05:10:34.600Z,43.67
2018-03-15T05:13:02.224Z,42.90
2018-03-15T05:15:29.872Z,46.23
2018-03-15T05:17:57.502Z,49.23
2018-03-15T05:20:25.525Z,48.00
2018-03-15T05:22:53.177Z,47.17
2018-03-15T05:25:20.781Z,40.57
2018-03-15T05:27:49.192Z,40.47
2018-03-15T05:30:16.864Z,46.30
2018-03-15T05:32:44.547Z,39.27
2018-03-15T05:35:12.925Z,41.00
2018-03-15T05:37:40.552Z,43.63
2018-03-15T05:40:08.943Z,41.10
2018-03-15T05:42:36.564Z,40.60
2018-03-15T05:45:04.232Z,37.80
2018-03-15T05:47:31.848Z,37.63
2018-03-15T05:49:59.493Z,38.80
2018-03-15T05:52:27.896Z,40.03
2018-03-15T05:54:55.533Z,46.80
2018-03-15T05:57:23.191Z,40.23
2018-03-15T05:59:50.812Z,39.37
2018-03-15T06:02:18.468Z,43.53
2018-03-15T06:04:46.096Z,39.60
2018-03-15T06:07:13.801Z,40.57
2018-03-15T06:09:41.433Z,40.83
2018-03-15T06:12:09.828Z,46.17
2018-03-15T06:14:38.222Z,41.40
2018-03-15T06:17:06.601Z,45.07
2018-03-15T06:19:34.245Z,36.53
2018-03-15T06:22:01.905Z,37.10
2018-03-15T06:24:29.532Z,35.17
2018-03-15T06:26:57.156Z,35.70
2018-03-15T06:29:25.579Z,37.27
2018-03-15T06:31:53.933Z,37.67
2018-03-15T06:34:22.326Z,32.60
2018-03-15T06:36:49.953Z,35.90
2018-03-15T06:39:17.594Z,40.57
2018-03-15T06:41:45.216Z,32.17
2018-03-15T06:44:12.872Z,35.07
2018-03-15T06:46:40.474Z,36.37
2018-03-15T06:49:08.088Z,36.53
2018-03-15T06:51:35.729Z,35.57
2018-03-15T06:54:03.344Z,28.77
2018-03-15T06:56:30.976Z,35.37
2018-03-15T06:58:58.610Z,33.80
2018-03-15T07:01:26.224Z,35.33
2018-03-15T07:03:54.612Z,32.73
2018-03-15T07:06:23.039Z,32.23
2018-03-15T07:08:50.644Z,32.10
2018-03-15T07:11:18.312Z,35.93
2018-03-15T07:13:45.932Z,31.47
2018-03-15T07:16:13.569Z,28.93
2018-03-15T07:18:41.199Z,33.90
2018-03-15T07:21:08.813Z,27.67
2018-03-15T07:23:36.460Z,32.53
2018-03-15T07:26:04.860Z,31.20
2018-03-15T07:28:32.488Z,28.67
2018-03-15T07:31:00.881Z,27.07
2018-03-15T07:33:28.570Z,27.97
2018-03-15T07:35:56.205Z,30.37
2018-03-15T07:38:23.833Z,28.33
2018-03-15T07:40:51.459Z,28.00
2018-03-15T07:43:19.930Z,29.47
2018-03-15T07:45:47.529Z,26.87
2018-03-15T07:48:15.153Z,25.80
2018-03-15T07:50:42.783Z,28.13
2018-03-15T07:53:10.431Z,25.70
2018-03-15T07:55:38.059Z,26.83
2018-03-15T07:58:05.716Z,25.37
2018-03-15T08:00:33.376Z,30.23
2018-03-15T08:03:00.994Z,28.03
2018-03-15T08:05:28.629Z,29.87
2018-03-15T08:07:56.252Z,27.80
2018-03-15T08:10:23.872Z,24.33
2018-03-15T08:12:52.264Z,27.27
2018-03-15T08:15:20.656Z,26.97
2018-03-15T08:17:48.276Z,22.77
2018-03-15T08:20:16.183Z,24.10
2018-03-15T08:22:44.577Z,22.80
2018-03-15T08:25:13.084Z,21.40
2018-03-15T08:27:40.704Z,24.03
2018-03-15T08:30:09.216Z,24.27
2018-03-15T08:32:36.843Z,21.03
2018-03-15T08:35:05.976Z,24.20
2018-03-15T08:37:33.657Z,23.33
2018-03-15T08:40:01.281Z,24.00
2018-03-15T08:42:28.925Z,21.93
2018-03-15T08:44:56.552Z,20.83
2018-03-15T08:47:24.185Z,22.93
2018-03-15T08:49:52.593Z,21.53
2018-03-15T08:52:20.352Z,25.07
2018-03-15T08:54:48.344Z,23.83
2018-03-15T08:57:15.981Z,20.70
2018-03-15T08:59:43.613Z,19.47
2018-03-15T09:02:11.271Z,20.03
2018-03-15T09:04:39.412Z,18.20
2018-03-15T09:07:07.303Z,19.60
2018-03-15T09:09:35.644Z,15.73
2018-03-15T09:12:04.038Z,17.23
2018-03-15T09:14:31.662Z,19.37
2018-03-15T09:16:59.310Z,16.70
2018-03-15T09:19:26.920Z,11.97
2018-03-15T09:21:54.541Z,13.23
2018-03-15T09:24:22.164Z,10.77
2018-03-15T09:26:50.557Z,12.97
2018-03-15T09:29:18.993Z,12.80
2018-03-15T09:31:46.621Z,13.63
2018-03-15T09:34:14.264Z,14.13
2018-03-15T09:36:42.713Z,16.27
2018-03-15T09:39:10.345Z,15.80
2018-03-15T09:41:37.984Z,12.87
2018-03-15T09:44:06.376Z,11.40
2018-03-15T09:46:34.265Z,11.97
2018-03-15T09:49:01.891Z,12.33
2018-03-15T09:51:29.517Z,11.23
2018-03-15T09:53:57.138Z,9.83
2018-03-15T09:56:25.529Z,8.97
2018-03-15T09:58:53.158Z,9.67
2018-03-15T10:01:20.793Z,10.57
2018-03-15T10:03:48.441Z,10.40
2018-03-15T10:06:16.407Z,11.20
2018-03-15T10:08:44.042Z,8.57
2018-03-15T10:11:11.664Z,8.23
2018-03-15T10:13:39.300Z,10.97
2018-03-15T10:16:06.925Z,9.87
2018-03-15T10:18:34.549Z,9.83
2018-03-15T10:21:02.172Z,8.57
2018-03-15T10:23:29.805Z,11.87
2018-03-15T10:25:57.432Z,12.00
2018-03-15T10:28:25.057Z,8.50
2018-03-15T10:30:52.689Z,8.37
2018-03-15T10:33:20.310Z,9.67
2018-03-15T10:35:48.713Z,7.90
2018-03-15T10:38:16.857Z,11.43
2018-03-15T10:40:44.476Z,12.13
2018-03-15T10:43:12.099Z,10.97
2018-03-15T10:45:40.493Z,9.67
2018-03-15T10:48:08.883Z,10.00
2018-03-15T10:50:36.548Z,7.97
2018-03-15T10:53:05.096Z,7.47
2018-03-15T10:55:32.703Z,8.67
2018-03-15T10:58:00.324Z,9.07
2018-03-15T11:00:28.005Z,6.90
2018-03-15T11:02:55.625Z,7.30
2018-03-15T11:05:23.285Z,9.20
2018-03-15T11:07:51.664Z,7.80
2018-03-15T11:10:19.293Z,6.47
2018-03-15T11:12:46.977Z,7.63
2018-03-15T11:15:14.572Z,7.23
2018-03-15T11:17:42.203Z,7.33
2018-03-15T11:20:10.623Z,6.37
2018-03-15T11:22:38.252Z,7.70
2018-03-15T11:25:06.641Z,6.47
2018-03-15T11:27:34.537Z,5.67
2018-03-15T11:30:02.281Z,6.33
2018-03-15T11:32:29.841Z,8.23
2018-03-15T11:34:58.242Z,6.90
2018-03-15T11:37:25.921Z,8.13
2018-03-15T11:39:53.545Z,6.17
2018-03-15T11:42:21.221Z,8.40
2018-03-15T11:44:49.615Z,9.13
2018-03-15T11:47:18.000Z,7.20
2018-03-15T11:49:46.388Z,6.13
2018-03-15T11:52:14.017Z,6.77
2018-03-15T11:54:42.028Z,6.80
2018-03-15T11:57:10.011Z,6.03
2018-03-15T11:59:37.637Z,7.23
2018-03-15T12:02:05.267Z,6.00
2018-03-15T12:04:32.898Z,5.90
2018-03-15T12:07:00.551Z,5.90
2018-03-15T12:09:28.440Z,6.50
2018-03-15T12:11:56.824Z,7.80
2018-03-15T12:14:25.480Z,8.07
2018-03-15T12:16:54.191Z,6.00
2018-03-15T12:19:22.681Z,5.63
2018-03-15T12:21:50.659Z,5.67
2018-03-15T12:24:18.525Z,5.20
2018-03-15T12:26:46.935Z,5.80
2018-03-15T12:29:14.891Z,4.97
2018-03-15T12:31:42.511Z,5.77
2018-03-15T12:34:10.149Z,5.20
2018-03-15T12:36:37.759Z,4.23
2018-03-15T12:39:06.148Z,6.07
2018-03-15T12:41:34.547Z,4.23
2018-03-15T12:44:02.940Z,4.87
2018-03-15T12:46:30.566Z,8.73
2018-03-15T12:48:58.181Z,5.50
2018-03-15T12:51:25.800Z,6.80
2018-03-15T12:53:53.444Z,4.67
2018-03-15T12:56:21.149Z,5.30
2018-03-15T12:58:48.794Z,5.23
2018-03-15T13:01:16.412Z,6.07
2018-03-15T13:03:44.032Z,7.47
2018-03-15T13:06:11.652Z,5.37
2018-03-15T13:08:39.281Z,5.93
2018-03-15T13:11:07.659Z,5.63
2018-03-15T13:13:36.048Z,5.50
2018-03-15T13:16:04.440Z,6.90
2018-03-15T13:18:32.067Z,4.50
2018-03-15T13:20:59.692Z,5.07
2018-03-15T13:23:27.316Z,9.33
2018-03-15T13:25:55.700Z,4.40
2018-03-15T13:28:23.375Z,6.27
2018-03-15T13:30:50.944Z,4.90
2018-03-15T13:33:19.336Z,4.17
2018-03-15T13:35:47.744Z,6.90
2018-03-15T13:38:15.365Z,9.10
2018-03-15T13:40:42.998Z,5.37
2018-03-15T13:43:10.653Z,4.97
2018-03-15T13:45:38.225Z,5.60
2018-03-15T13:48:05.851Z,5.30
2018-03-15T13:50:34.435Z,3.57
2018-03-15T13:53:02.876Z,4.77
2018-03-15T13:55:30.502Z,8.07
2018-03-15T13:57:58.154Z,5.53
2018-03-15T14:00:26.076Z,4.80
2018-03-15T14:02:53.728Z,4.07
2018-03-15T14:05:21.348Z,4.93
2018-03-15T14:07:49.728Z,4.17
2018-03-15T14:10:18.113Z,7.13
2018-03-15T14:12:46.514Z,4.60
2018-03-15T14:15:14.893Z,4.80
2018-03-15T14:17:42.609Z,4.50
2018-03-15T14:20:10.196Z,4.47
2018-03-15T14:22:37.816Z,4.10
2018-03-15T14:25:05.436Z,4.67
2018-03-15T14:27:33.076Z,4.00
2018-03-15T14:30:00.677Z,4.60
2018-03-15T14:32:29.060Z,4.80
2018-03-15T14:34:57.517Z,5.47
2018-03-15T14:37:25.489Z,4.73
2018-03-15T14:39:53.108Z,5.73
2018-03-15T14:42:20.741Z,6.33
2018-03-15T14:44:49.069Z,6.80
2018-03-15T14:47:16.930Z,4.93
2018-03-15T14:49:44.562Z,5.27
2018-03-15T14:52:12.169Z,4.40
2018-03-15T14:54:39.788Z,4.90
2018-03-15T14:57:07.412Z,6.97
2018-03-15T14:59:35.044Z,12.10
2018-03-15T15:02:02.726Z,8.20
2018-03-15T15:04:31.097Z,7.97
2018-03-15T15:06:58.745Z,8.20
2018-03-15T15:09:27.147Z,8.53
2018-03-15T15:11:54.772Z,7.53
2018-03-15T15:14:22.398Z,7.33
2018-03-15T15:16:50.021Z,7.07
2018-03-15T15:19:17.649Z,7.90
2018-03-15T15:21:45.272Z,9.50
2018-03-15T15:24:12.898Z,9.00
2018-03-15T15:26:40.516Z,8.20
2018-03-15T15:29:08.137Z,7.63
2018-03-15T15:31:35.752Z,8.53
2018-03-15T15:34:03.405Z,8.03
2018-03-15T15:36:31.033Z,8.27
2018-03-15T15:38:58.684Z,9.17
2018-03-15T15:41:26.308Z,7.93
2018-03-15T15:43:53.953Z,8.10
2018-03-15T15:46:22.341Z,9.13
2018-03-15T15:48:50.728Z,9.83
2018-03-15T15:51:19.118Z,9.80
2018-03-15T15:53:46.740Z,9.77
2018-03-15T15:59:01.457Z,7.63
2018-03-15T16:01:29.085Z,10.43
2018-03-15T16:03:56.712Z,7.93
2018-03-15T16:06:24.340Z,11.90
2018-03-15T16:08:52.782Z,8.93
2018-03-15T16:11:20.389Z,10.50
2018-03-15T16:13:48.009Z,10.20
2018-03-15T16:16:15.638Z,12.60
2018-03-15T16:18:43.258Z,10.60
2018-03-15T16:21:10.884Z,11.53
2018-03-15T16:23:38.517Z,15.67
2018-03-15T16:26:06.915Z,10.20
2018-03-15T16:28:35.297Z,10.67
2018-03-15T16:31:02.929Z,12.13
2018-03-15T16:33:30.550Z,12.80
2018-03-15T16:35:58.205Z,11.23
2018-03-15T16:38:26.564Z,10.73
2018-03-15T16:40:54.961Z,10.03
2018-03-15T16:43:22.588Z,12.27
2018-03-15T16:45:50.220Z,12.90
2018-03-15T16:48:17.935Z,11.70
2018-03-15T16:50:45.697Z,11.50
2018-03-15T16:53:13.363Z,12.77
2018-03-15T16:55:41.010Z,14.20
2018-03-15T16:58:08.692Z,11.33
2018-03-15T17:00:36.338Z,13.27
2018-03-15T17:03:03.993Z,12.17
2018-03-15T17:05:31.634Z,10.50
2018-03-15T17:07:59.268Z,13.57
2018-03-15T17:10:28.401Z,11.97
2018-03-15T17:12:56.058Z,12.43
2018-03-15T17:15:24.445Z,11.43
2018-03-15T17:17:52.881Z,11.70
2018-03-15T17:20:20.485Z,10.70
2018-03-15T17:22:48.873Z,10.97
2018-03-15T17:25:16.974Z,11.77
2018-03-15T17:27:44.598Z,11.10
2018-03-15T17:30:12.239Z,12.70
2018-03-15T17:32:39.842Z,13.43
2018-03-15T17:35:08.252Z,12.00
2018-03-15T17:37:36.632Z,13.23
2018-03-15T17:40:04.257Z,10.87
2018-03-15T17:42:31.892Z,12.20
2018-03-15T17:44:59.512Z,13.33
2018-03-15T17:47:27.900Z,15.87
2018-03-15T17:49:55.529Z,17.13
2018-03-15T17:52:23.152Z,16.43
2018-03-15T17:54:50.772Z,17.57
2018-03-15T17:57:18.405Z,19.80
2018-03-15T17:59:46.033Z,18.97
2018-03-15T18:02:13.702Z,19.73
2018-03-15T18:04:41.288Z,22.33
2018-03-15T18:07:08.911Z,23.57
2018-03-15T18:09:36.531Z,22.67
2018-03-15T18:12:04.169Z,20.80
2018-03-15T18:14:31.797Z,23.50
2018-03-15T18:16:59.418Z,23.80
2018-03-15T18:19:27.047Z,23.33
2018-03-15T18:21:55.433Z,26.70
2018-03-15T18:24:23.264Z,25.47
2018-03-15T18:26:50.905Z,23.23
2018-03-15T18:29:19.444Z,26.17
2018-03-15T18:31:47.846Z,27.83
2018-03-15T18:34:15.465Z,25.97
2018-03-15T18:36:43.095Z,24.73
2018-03-15T18:39:10.790Z,23.53
2018-03-15T18:41:38.541Z,25.50
2018-03-15T18:44:06.161Z,30.03
2018-03-15T18:46:34.561Z,25.23
2018-03-15T18:49:02.185Z,27.70
2018-03-15T18:51:30.160Z,25.90
2018-03-15T18:53:57.797Z,26.13
2018-03-15T18:56:25.409Z,29.53
2018-03-15T18:58:53.086Z,27.03
2018-03-15T19:01:20.703Z,27.87
2018-03-15T19:03:49.093Z,27.40
2018-03-15T19:06:16.786Z,31.73
2018-03-15T19:08:44.390Z,30.47
2018-03-15T19:11:13.989Z,28.80
2018-03-15T19:13:41.617Z,29.47
2018-03-15T19:16:09.253Z,29.13
2018-03-15T19:18:36.885Z,30.93
2018-03-15T19:21:05.275Z,31.13
2018-03-15T19:23:33.685Z,32.17
2018-03-15T19:26:01.309Z,33.23
2018-03-15T19:28:29.738Z,33.30
2018-03-15T19:30:57.391Z,35.83
2018-03-15T19:33:25.009Z,32.70
2018-03-15T19:35:53.409Z,34.40
2018-03-15T19:38:21.050Z,30.07
2018-03-15T19:40:48.693Z,35.67
2018-03-15T19:43:16.322Z,35.73
2018-03-15T19:45:58.930Z,31.60
2018-03-15T19:48:26.569Z,38.83
2018-03-15T19:50:54.216Z,30.13
2018-03-15T19:53:21.841Z,36.17
2018-03-15T19:55:49.477Z,32.17
2018-03-15T19:58:17.126Z,30.70
2018-03-15T20:00:45.427Z,30.73
2018-03-15T20:03:13.041Z,35.10
2018-03-15T20:05:40.681Z,33.23
2018-03-15T20:08:08.324Z,32.87
2018-03-15T20:10:35.946Z,32.10
2018-03-15T20:13:03.568Z,31.93
2018-03-15T20:15:31.971Z,31.67
2018-03-15T20:17:59.592Z,36.47
2018-03-15T20:20:28.191Z,36.97
2018-03-15T20:22:56.356Z,35.07
2018-03-15T20:25:23.976Z,38.33
2018-03-15T20:27:51.642Z,34.70
2018-03-15T20:30:19.268Z,39.37
2018-03-15T20:32:46.941Z,33.47
2018-03-15T20:35:14.536Z,34.27
2018-03-15T20:37:42.160Z,32.80
2018-03-15T20:40:09.815Z,35.57
2018-03-15T20:42:37.436Z,32.73
2018-03-15T20:45:05.173Z,34.07
2018-03-15T20:47:33.560Z,35.70
2018-03-15T20:50:01.215Z,34.90
2018-03-15T20:52:29.625Z,36.93
2018-03-15T20:54:58.002Z,35.03
2018-03-15T20:57:25.773Z,35.40
2018-03-15T20:59:53.556Z,37.40
2018-03-15T21:02:21.173Z,39.73
2018-03-15T21:04:48.801Z,36.23
2018-03-15T21:07:16.423Z,38.23
2018-03-15T21:09:44.824Z,36.73
2018-03-15T21:12:12.457Z,37.67
2018-03-15T21:14:40.076Z,39.77
2018-03-15T21:17:07.699Z,38.20
2018-03-15T21:19:35.316Z,41.47
2018-03-15T21:22:02.954Z,40.97
2018-03-15T21:24:30.581Z,45.97
2018-03-15T21:26:58.320Z,44.90
2018-03-15T21:29:25.862Z,44.97
2018-03-15T21:31:53.486Z,39.93
2018-03-15T21:34:21.105Z,50.23
2018-03-15T21:36:48.788Z,48.43
2018-03-15T21:39:16.411Z,44.63
2018-03-15T21:41:44.041Z,48.07
2018-03-15T21:44:11.665Z,41.63
2018-03-15T21:46:39.301Z,45.53
2018-03-15T21:49:07.688Z,50.50
2018-03-15T21:51:36.110Z,54.20
2018-03-15T21:54:03.763Z,57.83
2018-03-15T21:56:31.426Z,56.10
2018-03-15T21:58:59.017Z,55.73
2018-03-15T22:01:26.647Z,61.93
2018-03-15T22:03:55.253Z,58.03
2018-03-15T22:06:22.861Z,58.77
2018-03-15T22:08:50.529Z,67.33
2018-03-15T22:11:18.147Z,57.03
2018-03-15T22:13:45.768Z,66.30
2018-03-15T22:16:13.438Z,57.33
2018-03-15T22:18:41.025Z,67.13
2018-03-15T22:21:08.657Z,71.67
2018-03-15T22:23:36.284Z,64.23
2018-03-15T22:26:03.954Z,69.40
2018-03-15T22:28:31.565Z,66.03
2018-03-15T22:30:59.286Z,66.43
2018-03-15T22:33:26.914Z,68.47
2018-03-15T22:35:55.310Z,68.63
2018-03-15T22:38:22.951Z,78.40
2018-03-15T22:40:50.577Z,65.23
2018-03-15T22:43:18.201Z,76.83
2018-03-15T22:45:46.584Z,75.50
2018-03-15T22:48:14.974Z,72.50
2018-03-15T22:50:42.601Z,72.77
2018-03-15T22:53:10.233Z,71.13
2018-03-15T22:55:37.892Z,81.50
2018-03-15T22:58:06.277Z,72.83
2018-03-15T23:00:33.920Z,71.93
2018-03-15T23:03:01.544Z,64.37
2018-03-15T23:05:29.173Z,65.57
2018-03-15T23:07:56.801Z,65.90
2018-03-15T23:10:24.428Z,66.90
2018-03-15T23:12:52.058Z,77.87
2018-03-15T23:15:20.676Z,71.73
2018-03-15T23:17:48.302Z,66.03
2018-03-15T23:20:15.929Z,71.30
2018-03-15T23:22:43.597Z,76.77
2018-03-15T23:25:11.217Z,72.40
2018-03-15T23:27:38.885Z,72.50
2018-03-15T23:30:06.508Z,78.33
2018-03-15T23:32:34.901Z,76.57
2018-03-15T23:35:03.292Z,70.87
2018-03-15T23:37:31.684Z,65.67
2018-03-15T23:39:59.321Z,70.97
2018-03-15T23:42:26.970Z,76.00
2018-03-15T23:44:54.596Z,74.53
2018-03-15T23:47:22.228Z,68.13
2018-03-15T23:49:49.890Z,82.33
2018-03-15T23:52:17.489Z,85.30
2018-03-15T23:54:45.129Z,78.33
2018-03-15T23:57:12.753Z,68.87
2018-03-15T23:59:40.373Z,83.43
